createdAt,value
2018-12-25T00:00:17.464Z,81.30
2018-12-25T00:02:45.104Z,81.70
2018-12-25T00:05:12.730Z,80.20
2018-12-25T00:07:40.349Z,80.30
2018-12-25T00:10:08.046Z,79.50
2018-12-25T00:12:35.651Z,79.80
2018-12-25T00:15:03.334Z,79.50
2018-12-25T00:17:30.806Z,80.70
2018-12-25T00:19:58.427Z,80.50
2018-12-25T00:22:25.930Z,79.50
2018-12-25T00:24:53.408Z,78.80
2018-12-25T00:27:20.946Z,78.40
2018-12-25T00:29:48.466Z,78.40
2018-12-25T00:32:15.967Z,78.00
2018-12-25T00:34:43.532Z,79.20
2018-12-25T00:37:11.214Z,78.40
2018-12-25T00:39:39.046Z,77.80
2018-12-25T00:42:09.048Z,78.90
2018-12-25T00:44:36.594Z,79.20
2018-12-25T00:47:05.465Z,77.90
2018-12-25T00:49:49.439Z,77.50
2018-12-25T00:52:05.063Z,76.80
2018-12-25T00:54:32.582Z,77.10
2018-12-25T00:57:02.026Z,77.50
2018-12-25T00:59:29.537Z,76.50
2018-12-25T01:01:57.074Z,75.90
2018-12-25T01:04:27.913Z,76.00
2018-12-25T01:06:55.410Z,76.00
2018-12-25T01:09:23.030Z,75.80
2018-12-25T01:11:50.614Z,76.50
2018-12-25T01:14:24.276Z,76.70
2018-12-25T01:16:51.794Z,77.40
2018-12-25T01:19:23.290Z,77.10
2018-12-25T01:21:49.342Z,77.20
2018-12-25T01:24:16.886Z,76.60
2018-12-25T01:26:44.530Z,76.40
2018-12-25T01:29:12.067Z,76.80
2018-12-25T01:32:00.163Z,77.30
2018-12-25T01:34:28.053Z,76.80
2018-12-25T01:37:03.030Z,76.40
2018-12-25T01:39:30.622Z,75.90
2018-12-25T01:41:58.147Z,76.10
2018-12-25T01:44:26.849Z,76.30
2018-12-25T01:46:54.426Z,75.20
2018-12-25T01:49:21.938Z,75.90
2018-12-25T01:51:49.441Z,75.30
2018-12-25T01:54:17.369Z,75.40
2018-12-25T01:56:44.885Z,75.60
2018-12-25T01:59:12.490Z,74.50
2018-12-25T02:01:40.046Z,76.40
2018-12-25T02:04:07.558Z,77.00
2018-12-25T02:06:35.142Z,76.30
2018-12-25T02:09:03.158Z,75.20
2018-12-25T02:11:30.641Z,74.90
2018-12-25T02:13:58.146Z,74.70
2018-12-25T02:16:25.701Z,74.90
2018-12-25T02:18:53.228Z,74.40
2018-12-25T02:21:20.734Z,75.20
2018-12-25T02:23:48.272Z,75.30
2018-12-25T02:26:15.775Z,76.40
2018-12-25T02:28:43.278Z,76.40
2018-12-25T02:31:10.830Z,77.50
2018-12-25T02:33:38.313Z,77.40
2018-12-25T02:36:05.844Z,77.40
2018-12-25T02:38:33.381Z,76.80
2018-12-25T02:41:01.022Z,76.70
2018-12-25T02:43:29.069Z,76.00
2018-12-25T02:45:56.997Z,75.40
2018-12-25T02:48:44.044Z,75.90
2018-12-25T02:51:14.604Z,76.80
2018-12-25T02:53:42.116Z,76.60
2018-12-25T02:56:09.658Z,76.00
2018-12-25T02:58:37.212Z,76.10
2018-12-25T03:01:04.838Z,76.50
2018-12-25T03:03:32.358Z,76.10
2018-12-25T03:06:00.004Z,77.60
2018-12-25T03:08:27.595Z,76.50
2018-12-25T03:10:55.083Z,75.80
2018-12-25T03:13:23.870Z,75.90
2018-12-25T03:15:51.354Z,76.30
2018-12-25T03:18:18.877Z,75.20
2018-12-25T03:20:46.432Z,75.90
2018-12-25T03:23:13.917Z,76.60
2018-12-25T03:25:41.420Z,76.80
2018-12-25T03:28:09.081Z,77.00
2018-12-25T03:30:36.557Z,76.70
2018-12-25T03:33:04.063Z,77.60
2018-12-25T03:35:31.674Z,77.60
2018-12-25T03:37:59.270Z,77.60
2018-12-25T03:40:28.622Z,77.90
2018-12-25T03:42:56.142Z,78.80
2018-12-25T03:45:24.110Z,79.10
2018-12-25T03:47:51.963Z,79.40
2018-12-25T03:50:19.521Z,79.70
2018-12-25T03:52:47.092Z,79.40
2018-12-25T03:55:14.595Z,80.00
2018-12-25T03:57:42.098Z,80.80
2018-12-25T04:00:09.600Z,81.30
2018-12-25T04:02:37.104Z,81.00
2018-12-25T04:05:04.694Z,81.20
2018-12-25T04:07:46.005Z,81.20
2018-12-25T04:10:13.447Z,81.80
2018-12-25T04:12:47.324Z,82.80
2018-12-25T04:15:14.842Z,82.80
2018-12-25T04:17:42.398Z,82.80
2018-12-25T04:20:19.510Z,83.90
2018-12-25T04:22:39.311Z,84.40
2018-12-25T04:25:06.845Z,84.90
2018-12-25T04:27:34.335Z,85.30
2018-12-25T04:30:01.826Z,85.40
2018-12-25T04:32:29.366Z,85.60
2018-12-25T04:34:56.853Z,86.30
2018-12-25T04:37:24.370Z,86.50
2018-12-25T04:39:51.898Z,87.00
2018-12-25T04:42:19.390Z,87.60
2018-12-25T04:44:46.877Z,87.90
2018-12-25T04:47:14.429Z,87.90
2018-12-25T04:49:41.933Z,88.00
2018-12-25T04:52:09.441Z,88.50
2018-12-25T04:54:36.997Z,89.20
2018-12-25T04:57:04.506Z,88.40
2018-12-25T04:59:31.998Z,88.80
2018-12-25T05:01:59.530Z,89.10
2018-12-25T05:04:27.234Z,89.30
2018-12-25T05:06:54.738Z,89.60
2018-12-25T05:09:22.275Z,89.70
2018-12-25T05:11:49.772Z,90.00
2018-12-25T05:14:17.287Z,89.90
2018-12-25T05:16:44.826Z,90.00
2018-12-25T05:19:12.326Z,90.00
2018-12-25T05:21:39.822Z,90.00
2018-12-25T05:24:07.350Z,90.30
2018-12-25T05:26:34.835Z,90.40
2018-12-25T05:29:02.331Z,90.50
2018-12-25T05:31:29.873Z,90.60
2018-12-25T05:33:57.386Z,90.60
2018-12-25T05:36:24.866Z,90.60
2018-12-25T05:38:52.433Z,90.50
2018-12-25T05:41:20.002Z,90.60
2018-12-25T05:43:47.432Z,90.60
2018-12-25T05:46:15.377Z,90.60
2018-12-25T05:48:42.869Z,90.60
2018-12-25T05:51:10.358Z,90.90
2018-12-25T05:53:37.907Z,91.30
2018-12-25T05:56:05.420Z,91.20
2018-12-25T05:58:32.906Z,91.10
2018-12-25T06:01:00.667Z,91.10
2018-12-25T06:03:28.145Z,91.00
2018-12-25T06:05:55.646Z,91.10
2018-12-25T06:08:23.181Z,91.30
2018-12-25T06:10:50.662Z,91.40
2018-12-25T06:13:18.170Z,91.50
2018-12-25T06:15:45.685Z,91.70
2018-12-25T06:18:13.219Z,91.70
2018-12-25T06:20:40.722Z,91.80
2018-12-25T06:23:08.258Z,91.10
2018-12-25T06:25:35.743Z,91.50
2018-12-25T06:28:03.258Z,91.20
2018-12-25T06:30:30.783Z,91.20
2018-12-25T06:32:58.292Z,91.20
2018-12-25T06:35:25.786Z,91.30
2018-12-25T06:37:53.333Z,91.30
2018-12-25T06:40:20.824Z,91.30
2018-12-25T06:42:48.318Z,91.30
2018-12-25T06:45:15.886Z,91.30
2018-12-25T06:47:43.363Z,91.40
2018-12-25T06:50:10.862Z,91.40
2018-12-25T06:52:38.414Z,91.30
2018-12-25T06:55:05.948Z,91.20
2018-12-25T06:57:33.524Z,91.20
2018-12-25T07:00:01.148Z,91.40
2018-12-25T07:02:28.718Z,91.40
2018-12-25T07:05:04.782Z,91.40
2018-12-25T07:07:32.277Z,91.20
2018-12-25T07:09:59.785Z,91.30
2018-12-25T07:12:27.362Z,91.20
2018-12-25T07:14:54.880Z,91.30
2018-12-25T07:17:22.381Z,91.50
2018-12-25T07:19:50.031Z,91.50
2018-12-25T07:22:17.533Z,91.60
2018-12-25T07:24:45.037Z,91.70
2018-12-25T07:27:12.677Z,91.50
2018-12-25T07:29:40.260Z,91.60
2018-12-25T07:32:07.777Z,91.80
2018-12-25T07:34:35.350Z,91.50
2018-12-25T07:37:02.874Z,91.50
2018-12-25T07:39:30.522Z,92.00
2018-12-25T07:41:58.019Z,91.80
2018-12-25T07:44:25.504Z,92.00
2018-12-25T07:46:53.032Z,92.10
2018-12-25T07:49:20.524Z,92.10
2018-12-25T07:51:48.077Z,92.00
2018-12-25T07:54:15.660Z,92.00
2018-12-25T07:56:43.159Z,92.20
2018-12-25T07:59:10.669Z,92.00
2018-12-25T08:01:38.967Z,92.10
2018-12-25T08:04:06.440Z,92.10
2018-12-25T08:06:33.942Z,92.10
2018-12-25T08:09:01.468Z,92.30
2018-12-25T08:11:32.090Z,92.10
2018-12-25T08:14:01.092Z,92.00
2018-12-25T08:17:00.709Z,92.10
2018-12-25T08:19:28.258Z,92.10
2018-12-25T08:21:55.792Z,92.10
2018-12-25T08:24:50.650Z,92.20
2018-12-25T08:27:29.042Z,91.90
2018-12-25T08:36:42.010Z,91.80
2018-12-25T08:39:44.580Z,91.80
2018-12-25T08:42:36.078Z,91.90
2018-12-25T08:45:07.786Z,91.90
2018-12-25T08:47:42.894Z,91.90
2018-12-25T08:50:14.929Z,91.90
2018-12-25T08:57:09.195Z,91.70
2018-12-25T09:06:23.587Z,91.50
2018-12-25T09:09:23.374Z,91.40
2018-12-25T09:12:19.515Z,91.40
2018-12-25T09:14:52.952Z,91.30
2018-12-25T09:17:20.582Z,91.30
2018-12-25T09:19:48.142Z,91.10
2018-12-25T09:22:15.760Z,91.20
2018-12-25T09:24:43.307Z,91.10
2018-12-25T09:27:10.970Z,91.20
2018-12-25T09:29:39.368Z,91.10
2018-12-25T09:32:06.888Z,91.00
2018-12-25T09:34:34.434Z,90.80
2018-12-25T09:37:02.034Z,90.80
2018-12-25T09:39:29.588Z,90.40
2018-12-25T09:41:57.100Z,90.50
2018-12-25T09:44:24.610Z,90.50
2018-12-25T09:46:52.152Z,90.60
2018-12-25T09:49:19.703Z,90.50
2018-12-25T09:51:54.388Z,90.60
2018-12-25T09:54:16.905Z,90.60
2018-12-25T09:56:48.512Z,90.60
2018-12-25T09:59:16.329Z,90.40
2018-12-25T10:01:43.847Z,90.50
2018-12-25T10:04:11.356Z,90.40
2018-12-25T10:06:39.010Z,90.50
2018-12-25T10:09:07.596Z,90.20
2018-12-25T10:11:35.172Z,90.40
2018-12-25T10:14:02.674Z,90.30
2018-12-25T10:16:30.290Z,90.50
2018-12-25T10:18:57.841Z,90.30
2018-12-25T10:21:25.490Z,90.50
2018-12-25T10:23:53.060Z,90.10
2018-12-25T10:26:20.600Z,90.20
2018-12-25T10:28:48.297Z,90.00
2018-12-25T10:31:17.756Z,90.00
2018-12-25T10:33:45.316Z,90.00
2018-12-25T10:36:12.967Z,90.30
2018-12-25T10:38:40.601Z,90.20
2018-12-25T10:41:08.168Z,90.10
2018-12-25T10:43:35.817Z,90.10
2018-12-25T10:46:03.352Z,90.10
2018-12-25T10:48:30.890Z,89.50
2018-12-25T10:50:58.532Z,89.30
2018-12-25T10:53:26.058Z,89.40
2018-12-25T10:55:53.788Z,89.80
2018-12-25T10:58:23.259Z,89.70
2018-12-25T11:00:55.033Z,89.70
2018-12-25T11:03:22.603Z,89.50
2018-12-25T11:05:50.246Z,90.00
2018-12-25T11:08:18.013Z,89.90
2018-12-25T11:10:45.562Z,89.60
2018-12-25T11:13:13.137Z,90.00
2018-12-25T11:15:40.664Z,90.00
2018-12-25T11:18:08.210Z,90.40
2018-12-25T11:20:38.348Z,90.50
2018-12-25T11:23:05.865Z,90.70
2018-12-25T11:25:33.458Z,91.10
2018-12-25T11:28:01.032Z,91.10
2018-12-25T11:30:28.568Z,91.10
2018-12-25T11:32:56.100Z,91.80
2018-12-25T11:35:23.694Z,92.00
2018-12-25T11:37:51.244Z,92.30
2018-12-25T11:40:18.818Z,92.50
2018-12-25T11:42:46.302Z,92.80
2018-12-25T11:45:15.084Z,93.00
2018-12-25T11:47:42.680Z,93.30
2018-12-25T11:50:10.358Z,93.50
2018-12-25T11:52:37.886Z,93.90
2018-12-25T11:55:05.474Z,93.90
2018-12-25T11:57:33.144Z,94.40
2018-12-25T12:00:00.653Z,94.50
2018-12-25T12:02:28.199Z,94.60
2018-12-25T12:04:55.735Z,94.50
2018-12-25T12:07:23.230Z,94.40
2018-12-25T12:09:50.796Z,94.40
2018-12-25T12:12:18.306Z,94.40
2018-12-25T12:14:45.798Z,94.20
2018-12-25T12:17:13.356Z,94.10
2018-12-25T12:19:40.840Z,94.40
2018-12-25T12:22:08.386Z,94.50
2018-12-25T12:24:36.206Z,94.40
2018-12-25T12:27:03.698Z,94.60
2018-12-25T12:29:31.229Z,94.30
2018-12-25T12:31:58.794Z,94.00
2018-12-25T12:34:26.332Z,94.50
2018-12-25T12:36:53.814Z,94.40
2018-12-25T12:39:21.397Z,94.50
2018-12-25T12:41:48.896Z,94.50
2018-12-25T12:44:16.472Z,94.50
2018-12-25T12:46:44.093Z,94.60
2018-12-25T12:49:11.605Z,94.30
2018-12-25T12:51:39.089Z,94.40
2018-12-25T12:54:06.694Z,94.20
2018-12-25T12:56:34.474Z,94.50
2018-12-25T12:59:01.983Z,94.30
2018-12-25T13:01:29.540Z,94.40
2018-12-25T13:03:57.056Z,94.60
2018-12-25T13:06:24.551Z,95.00
2018-12-25T13:08:52.110Z,95.10
2018-12-25T13:11:19.617Z,94.80
2018-12-25T13:13:47.142Z,94.50
2018-12-25T13:16:14.697Z,94.50
2018-12-25T13:18:42.206Z,94.50
2018-12-25T13:21:09.725Z,94.80
2018-12-25T13:23:37.287Z,94.70
2018-12-25T13:26:04.830Z,94.80
2018-12-25T13:28:32.331Z,94.60
2018-12-25T13:31:00.065Z,94.70
2018-12-25T13:33:27.696Z,94.60
2018-12-25T13:35:55.189Z,94.70
2018-12-25T13:38:23.625Z,94.80
2018-12-25T13:40:51.319Z,94.80
2018-12-25T13:43:18.835Z,94.70
2018-12-25T13:45:46.393Z,94.90
2018-12-25T13:48:13.928Z,94.80
2018-12-25T13:50:41.430Z,94.80
2018-12-25T13:53:09.019Z,94.80
2018-12-25T13:55:36.542Z,94.90
2018-12-25T13:58:04.087Z,94.80
2018-12-25T14:00:31.623Z,95.10
2018-12-25T14:02:59.117Z,95.10
2018-12-25T14:05:26.684Z,95.00
2018-12-25T14:07:54.245Z,95.10
2018-12-25T14:10:21.757Z,95.00
2018-12-25T14:12:49.288Z,95.10
2018-12-25T14:15:16.897Z,95.30
2018-12-25T14:17:44.449Z,95.10
2018-12-25T14:20:11.969Z,95.20
2018-12-25T14:22:39.542Z,95.30
2018-12-25T14:25:07.182Z,95.10
2018-12-25T14:27:34.849Z,95.30
2018-12-25T14:30:02.590Z,95.30
2018-12-25T14:32:30.188Z,95.40
2018-12-25T14:35:00.252Z,95.40
2018-12-25T14:37:29.879Z,95.50
2018-12-25T14:39:57.394Z,95.60
2018-12-25T14:42:24.870Z,95.80
2018-12-25T14:44:52.435Z,95.70
2018-12-25T14:47:20.591Z,95.70
2018-12-25T14:49:48.108Z,95.70
2018-12-25T14:52:15.679Z,95.80
2018-12-25T14:54:43.193Z,95.90
2018-12-25T14:57:10.699Z,96.00
2018-12-25T14:59:38.231Z,96.00
2018-12-25T15:02:05.827Z,95.90
2018-12-25T15:04:33.345Z,96.00
2018-12-25T15:07:00.903Z,96.20
2018-12-25T15:09:28.399Z,96.20
2018-12-25T15:11:55.977Z,96.30
2018-12-25T15:14:23.521Z,96.30
2018-12-25T15:16:51.038Z,96.40
2018-12-25T15:19:18.625Z,96.30
2018-12-25T15:21:46.178Z,96.70
2018-12-25T15:24:13.694Z,96.50
2018-12-25T15:26:41.210Z,96.60
2018-12-25T15:29:08.746Z,96.70
2018-12-25T15:31:36.278Z,96.60
2018-12-25T15:34:03.855Z,96.90
2018-12-25T15:36:31.406Z,96.80
2018-12-25T15:38:58.914Z,96.90
2018-12-25T15:41:26.710Z,97.00
2018-12-25T15:43:54.245Z,97.10
2018-12-25T15:46:21.741Z,97.00
2018-12-25T15:48:49.429Z,97.10
2018-12-25T15:51:17.003Z,97.10
2018-12-25T15:53:44.524Z,97.10
2018-12-25T15:56:12.873Z,97.10
2018-12-25T15:58:40.407Z,97.30
2018-12-25T16:01:07.927Z,97.50
2018-12-25T16:03:35.518Z,97.10
2018-12-25T16:06:03.030Z,97.50
2018-12-25T16:08:30.568Z,97.10
2018-12-25T16:10:58.065Z,97.10
2018-12-25T16:13:28.360Z,97.40
2018-12-25T16:15:55.902Z,97.50
2018-12-25T16:18:23.404Z,97.50
2018-12-25T16:20:50.898Z,97.50
2018-12-25T16:23:18.415Z,97.50
2018-12-25T16:25:45.894Z,97.50
2018-12-25T16:28:13.394Z,97.70
2018-12-25T16:30:40.942Z,97.70
2018-12-25T16:33:08.506Z,97.80
2018-12-25T16:35:36.040Z,97.80
2018-12-25T16:38:03.538Z,97.70
2018-12-25T16:40:31.014Z,97.80
2018-12-25T16:42:58.583Z,97.80
2018-12-25T16:45:26.091Z,97.90
2018-12-25T16:47:53.682Z,98.00
2018-12-25T16:50:21.308Z,98.10
2018-12-25T16:52:48.796Z,98.10
2018-12-25T16:55:16.339Z,98.00
2018-12-25T16:57:43.918Z,97.90
2018-12-25T17:00:11.452Z,98.00
2018-12-25T17:02:38.988Z,98.00
2018-12-25T17:05:06.579Z,98.10
2018-12-25T17:07:34.092Z,98.20
2018-12-25T17:10:01.599Z,98.00
2018-12-25T17:12:29.210Z,97.90
2018-12-25T17:14:56.754Z,98.10
2018-12-25T17:17:24.276Z,98.00
2018-12-25T17:19:51.848Z,98.00
2018-12-25T17:22:20.361Z,98.20
2018-12-25T17:24:48.148Z,98.30
2018-12-25T17:27:15.698Z,98.20
2018-12-25T17:29:43.240Z,98.40
2018-12-25T17:32:10.764Z,98.30
2018-12-25T17:34:38.456Z,98.40
2018-12-25T17:37:05.987Z,98.40
2018-12-25T17:39:33.542Z,98.30
2018-12-25T17:42:01.106Z,98.80
2018-12-25T17:44:28.648Z,98.70
2018-12-25T17:46:56.185Z,98.70
2018-12-25T17:49:23.744Z,98.70
2018-12-25T17:51:51.300Z,98.70
2018-12-25T17:54:18.832Z,98.70
2018-12-25T17:56:46.422Z,98.80
2018-12-25T17:59:13.948Z,98.70
2018-12-25T18:01:42.946Z,98.70
2018-12-25T18:04:10.574Z,98.70
2018-12-25T18:06:38.536Z,98.70
2018-12-25T18:09:06.126Z,98.90
2018-12-25T18:11:33.756Z,98.80
2018-12-25T18:14:01.325Z,98.80
2018-12-25T18:16:30.076Z,98.90
2018-12-25T18:18:57.820Z,98.80
2018-12-25T18:21:25.358Z,98.90
2018-12-25T18:23:52.872Z,98.90
2018-12-25T18:26:20.606Z,98.80
2018-12-25T18:28:48.108Z,98.80
2018-12-25T18:31:15.626Z,99.00
2018-12-25T18:33:43.217Z,99.00
2018-12-25T18:36:10.750Z,98.90
2018-12-25T18:38:38.376Z,99.00
2018-12-25T18:41:06.339Z,99.10
2018-12-25T18:43:33.842Z,99.20
2018-12-25T18:46:01.349Z,99.10
2018-12-25T18:48:28.892Z,99.10
2018-12-25T18:50:56.468Z,99.30
2018-12-25T18:53:23.970Z,99.10
2018-12-25T18:55:51.548Z,99.20
2018-12-25T18:58:19.056Z,99.20
2018-12-25T19:00:46.690Z,99.10
2018-12-25T19:03:14.263Z,99.00
2018-12-25T19:05:41.812Z,99.10
2018-12-25T19:08:09.382Z,99.10
2018-12-25T19:10:36.990Z,99.30
2018-12-25T19:13:04.553Z,99.30
2018-12-25T19:15:33.528Z,99.20
2018-12-25T19:18:01.576Z,99.20
2018-12-25T19:20:29.237Z,99.30
2018-12-25T19:22:56.786Z,99.40
2018-12-25T19:25:24.348Z,99.30
2018-12-25T19:27:52.010Z,99.40
2018-12-25T19:30:22.002Z,99.30
2018-12-25T19:32:57.480Z,99.20
2018-12-25T19:35:25.044Z,99.20
2018-12-25T19:37:52.580Z,99.30
2018-12-25T19:40:20.248Z,99.20
2018-12-25T19:42:47.825Z,99.20
2018-12-25T19:45:15.554Z,99.30
2018-12-25T19:47:43.126Z,99.20
2018-12-25T19:50:10.670Z,99.30
2018-12-25T19:52:39.558Z,99.20
2018-12-25T19:55:07.160Z,99.20
2018-12-25T19:57:34.740Z,99.20
2018-12-25T20:00:02.278Z,99.40
2018-12-25T20:02:29.865Z,99.50
2018-12-25T20:05:42.150Z,99.40
2018-12-25T20:08:43.352Z,99.20
2018-12-25T20:11:51.808Z,99.20
2018-12-25T20:15:01.371Z,99.20
2018-12-25T20:18:00.150Z,99.10
2018-12-25T20:20:51.299Z,99.30
2018-12-25T20:23:51.630Z,99.40
2018-12-25T20:27:07.457Z,99.40
2018-12-25T20:30:13.239Z,99.40
2018-12-25T20:33:12.414Z,99.70
2018-12-25T20:36:20.350Z,99.80
2018-12-25T20:39:22.990Z,99.90
2018-12-25T20:42:31.136Z,99.90
2018-12-25T20:45:37.082Z,99.90
2018-12-25T20:48:39.993Z,99.90
2018-12-25T20:51:54.412Z,99.90
2018-12-25T20:54:48.314Z,99.80
2018-12-25T20:58:02.044Z,99.80
2018-12-25T21:01:21.271Z,99.90
2018-12-25T21:04:35.553Z,99.90
2018-12-25T21:07:45.342Z,99.90
2018-12-25T21:11:02.894Z,99.80
2018-12-25T21:14:10.510Z,99.90
2018-12-25T21:17:00.633Z,99.60
2018-12-25T21:20:15.351Z,99.60
2018-12-25T21:23:19.827Z,99.60
2018-12-25T21:26:24.317Z,99.30
2018-12-25T21:28:51.905Z,99.30
2018-12-25T21:31:19.943Z,99.40
2018-12-25T21:33:47.570Z,99.60
2018-12-25T21:36:15.287Z,99.30
2018-12-25T21:38:42.790Z,99.40
2018-12-25T21:41:11.536Z,99.40
2018-12-25T21:43:39.244Z,99.40
2018-12-25T21:46:06.746Z,99.30
2018-12-25T21:48:34.430Z,99.10
2018-12-25T21:51:01.957Z,99.60
2018-12-25T21:53:30.886Z,99.10
2018-12-25T21:55:59.064Z,99.30
2018-12-25T21:58:28.002Z,99.50
2018-12-25T22:00:56.375Z,99.60
2018-12-25T22:03:25.078Z,99.60
2018-12-25T22:05:52.568Z,99.50
2018-12-25T22:08:20.086Z,99.60
2018-12-25T22:10:48.304Z,99.70
2018-12-25T22:13:16.386Z,99.60
2018-12-25T22:15:44.354Z,99.60
2018-12-25T22:18:12.325Z,99.60
2018-12-25T22:20:39.866Z,99.70
2018-12-25T22:23:08.994Z,99.60
2018-12-25T22:25:37.941Z,99.60
2018-12-25T22:28:05.442Z,99.60
2018-12-25T22:30:33.650Z,99.50
2018-12-25T22:33:01.686Z,99.50
2018-12-25T22:35:40.456Z,99.40
2018-12-25T22:38:11.726Z,99.40
2018-12-25T22:40:39.230Z,99.60
2018-12-25T22:43:07.285Z,99.40
2018-12-25T22:45:34.839Z,99.40
2018-12-25T22:48:02.366Z,99.40
2018-12-25T22:50:32.246Z,99.40
2018-12-25T22:53:00.585Z,99.50
2018-12-25T22:55:35.855Z,99.30
2018-12-25T22:58:00.615Z,99.10
2018-12-25T23:00:30.674Z,99.40
2018-12-25T23:02:58.232Z,99.40
2018-12-25T23:05:26.834Z,99.50
2018-12-25T23:07:54.594Z,99.20
2018-12-25T23:10:22.728Z,99.20
2018-12-25T23:12:51.136Z,98.90
2018-12-25T23:15:19.932Z,99.10
2018-12-25T23:17:47.494Z,99.20
2018-12-25T23:20:15.394Z,99.30
2018-12-25T23:22:42.952Z,99.20
2018-12-25T23:25:10.925Z,99.00
2018-12-25T23:27:38.894Z,99.10
2018-12-25T23:30:09.700Z,98.90
2018-12-25T23:32:37.288Z,98.90
2018-12-25T23:35:04.824Z,99.10
2018-12-25T23:37:32.410Z,99.20
2018-12-25T23:39:59.934Z,99.10
2018-12-25T23:42:27.547Z,99.20
2018-12-25T23:44:55.100Z,99.10
2018-12-25T23:47:22.643Z,99.00
2018-12-25T23:49:50.172Z,99.00
2018-12-25T23:52:17.715Z,98.80
2018-12-25T23:54:45.225Z,98.80
2018-12-25T23:57:12.735Z,98.90
2018-12-25T23:59:40.350Z,99.00
